Portada
METAR-TAF:

METAR-TAF

Aeropuertos :

Aeropuerto Cherif Al Idrissi

Alhucemas, Marruecos

latitud: 35-11N, longitud: 003-51W, altitud: 27 m

Observación

El informe se hizo hace 40 minutos, a las 12:00 UTC
Viento 8 kt del este-noreste, variando entre norte-noreste y sureste
Temperatura 17°C
Humedad 52%
Presión 1030 hPa
Visibilidad 10 km o más
Escasas nubes a una altura de 2200 ft
Nubes dispersas a una altura de 3500 ft

METAR: GMTA 031200Z 07008KT 020V130 9999 FEW022 SCT035 17/07 Q1030 NOSIG

Hora: 13:40 (12:40 UTC)

Pronóstico

El informe se hizo hace 1 hora y 40 minutos, a las 11:00 UTC
Pronóstico válido del 03 a las 12 UTC al 04 a las 18 UTC
Viento 6 kt del norte-noreste
Visibilidad 10 km o más
Escasas nubes a una altura de 2000 ft
Nubes dispersas a una altura de 3000 ft

TAF: GMTA 031100Z 0312/0418 02006KT 9999 FEW020 SCT030

Observaciones y pronósticos meteorológicos de más de 4000 aeropuertos (mensajes METAR y TAF).

Los puntos amarillos y rojos representan las estaciones disponibles.

Ponga el ratón en el punto deseado para ver el nombre de la estación.

Haga clic para ver las observaciones y los pronósticos meteorológicos.

Para cambiar el mapa : haga clic en los botones verdes con una cruz de color negro para hacer un zoom, en el botón verde con un guión para alejar o en las flechas verdes para mapas adyacentes.


METAR-TAF: